Wednesday, August 15, 2018, 7:06 AM EDT
Back to Local

KCON, Concord, Concord Municipal Airport

Location: Concord, NH, United States Lat: 43.195
Local Time: 7:06 AM EDT (11:06 GMT) Lon: -71.501
Time Zone: US/Eastern Elev: 344 ft

Show me the last for .
Show Decoded

2018-08-15 06:51 METAR KCON 151051Z AUTO 00000KT 5SM BR OVC005 21/20 A2983 RMK AO2 SLP099
                 T02110200 =
2018-08-15 05:51 METAR KCON 150951Z AUTO 00000KT 7SM OVC008 21/20 A2982 RMK AO2 SLP096 T02060200
                 =
2018-08-15 05:27 METAR KCON 150927Z AUTO 00000KT 7SM OVC007 21/20 A2981 RMK AO2 CIG 003V009
                 T02060200 =
2018-08-15 04:51 METAR KCON 150851Z AUTO 00000KT 7SM OVC004 21/20 A2981 RMK AO2 RAB14E31 SLP093
                 P0000 60000 T02060200 58005 =
2018-08-15 04:40 METAR KCON 150840Z AUTO 00000KT 8SM OVC004 21/20 A2981 RMK AO2 RAB14E31 P0000
                 T02060200 =
2018-08-15 03:51 METAR KCON 150751Z AUTO 00000KT 7SM OVC005 21/20 A2982 RMK AO2 SLP096 T02060200
                 =
2018-08-15 03:32 METAR KCON 150732Z AUTO 00000KT 3SM BR BKN003 OVC008 21/20 A2982 RMK AO2
                 T02060200 =
2018-08-15 03:28 METAR KCON 150728Z AUTO 00000KT 1 1/2SM BR BKN003 OVC008 21/20 A2982 RMK AO2
                 T02060200 =
2018-08-15 03:20 METAR KCON 150720Z AUTO 00000KT 2 1/2SM BR BKN003 OVC008 20/20 A2982 RMK AO2
                 T02000200 =
2018-08-15 02:51 METAR KCON 150651Z AUTO 00000KT 9SM BKN009 20/19 A2982 RMK AO2 SLP096 T02000194
                 =
2018-08-15 02:05 METAR KCON 150605Z AUTO 00000KT 9SM BKN009 20/19 A2982 RMK AO2 T02000194 =
2018-08-15 01:51 METAR KCON 150551Z AUTO 00000KT 9SM SCT009 20/19 A2983 RMK AO2 SLP098 60000
                 T02000194 10228 20200 56006 =
2018-08-15 01:48 METAR KCON 150548Z AUTO 00000KT 9SM SCT009 20/19 A2983 RMK AO2 =
2018-08-15 00:51 METAR KCON 150451Z AUTO 00000KT 9SM SCT010 21/19 A2984 RMK AO2 SLP102 T02060194
                 402780200 =
2018-08-14 23:51 METAR KCON 150351Z AUTO 00000KT 10SM BKN006 BKN010 OVC038 21/21 A2984 RMK AO2
                 SLP105 T02110206 =
2018-08-14 22:51 METAR KCON 150251Z AUTO 00000KT 10SM OVC008 22/21 A2985 RMK AO2 CIG 006V011
                 SLP105 60000 T02170206 50001 =
2018-08-14 21:51 METAR KCON 150151Z AUTO 12003KT 10SM BKN008 BKN013 OVC033 22/21 A2985 RMK AO2
                 CIG 006V010 SLP106 T02170206 =
2018-08-14 20:51 METAR KCON 150051Z AUTO 11004KT 10SM BKN013 22/21 A2985 RMK AO2 RAE2355 SLP105
                 P0000 T02170206 =
2018-08-14 19:51 METAR KCON 142351Z AUTO 11005KT 10SM -RA BKN013 23/21 A2984 RMK AO2 RAB10E17B41
                 SLP104 P0000 60005 T02280211 10278 20217 55000 =
2018-08-14 19:44 METAR KCON 142344Z AUTO 10005KT 10SM -RA BKN014 23/21 A2984 RMK AO2 RAB10E17B41
                 P0000 T02330211 =
2018-08-14 18:51 METAR KCON 142251Z AUTO 13004KT 10SM SCT090 24/21 A2984 RMK AO2 SLP102 T02390211
                 =
2018-08-14 17:51 METAR KCON 142151Z AUTO 14005KT 10SM CLR 24/21 A2982 RMK AO2 SLP097 T02390206 =
2018-08-14 16:51 METAR KCON 142051Z AUTO 13004KT 10SM SCT090 23/21 A2984 RMK AO2 RAE21 SLP104
                 P0001 60005 T02280206 58012 =
2018-08-14 15:51 METAR KCON 141951Z AUTO 15008KT 5SM -RA BR FEW020 OVC100 22/20 A2986 RMK AO2 LTG
                 DSNT NE-SE RAB1854 SLP111 P0004 T02170200 =
2018-08-14 14:51 METAR KCON 141851Z AUTO 14005KT 10SM SCT110 26/21 A2986 RMK AO2 LTG DSNT SE-W
                 SLP111 T02560206 =
2018-08-14 13:51 METAR KCON 141751Z AUTO 00000KT 10SM FEW026 SCT034 27/21 A2988 RMK AO2 LTG DSNT
                 SW SLP116 60000 T02670206 10272 20206 58015 =
2018-08-14 13:34 METAR KCON 141734Z AUTO VRB05KT 10SM FEW026 SCT035 27/21 A2989 RMK AO2 T02670206
                 =
2018-08-14 12:51 METAR KCON 141651Z AUTO 00000KT 10SM BKN019 26/21 A2990 RMK AO2 SLP123 T02560211
                 =
2018-08-14 11:51 METAR KCON 141551Z AUTO 18005KT 10SM FEW009 BKN015 OVC021 24/21 A2992 RMK AO2
                 SLP129 T02390211 =
2018-08-14 11:18 METAR KCON 141518Z AUTO 17004KT 10SM BKN012 OVC016 23/22 A2992 =
2018-08-14 11:08 METAR KCON 141508Z AUTO 17004KT 10SM SCT010 OVC016 23/21 A2992 RMK AO2 T02280211
                 =
2018-08-14 10:51 METAR KCON 141451Z AUTO 17004KT 10SM BKN007 OVC015 23/22 A2992 RMK AO2 RAE00 CIG
                 005V012 SLP131 P0000 60000 T02330217 58003 =
2018-08-14 09:51 METAR KCON 141351Z AUTO 18003KT 5SM -RA BR OVC005 22/21 A2993 RMK AO2 RAB49
                 SLP134 P0000 T02170211 =
2018-08-14 08:51 METAR KCON 141251Z AUTO 13003KT 10SM OVC003 21/21 A2993 RMK AO2 SLP133 T02110206
                 =
2018-08-14 08:24 METAR KCON 141224Z AUTO 18004KT 10SM OVC004 21/21 A2994 RMK AO2 T02110206 =
2018-08-14 07:51 METAR KCON 141151Z AUTO 14004KT 10SM OVC005 21/20 A2993 RMK AO2 SLP134 60001
                 70009 T02060200 10211 20200 53004 =
2018-08-14 07:12 METAR KCON 141112Z AUTO 00000KT 10SM OVC005 21/20 A2992 RMK AO2 CIG 002V006
                 T02060200 =

Support USWX by starting your Amazon purchase here.